Liberal Mid-America Regional Airport Liberal US
ICAO: KLBL
IATA: LBL
Category: Medium
Scheduled Services: Yes

Elevation: 2885 ft
TransAlt. 18000 ft.

Airport Communications:
AWOS 3:118.375
KANSAS CITY CNTR:134
WICHITA RDO:122.4
CTAF/UNICOM:122.8

KLBL Zoom In..

If you have problems with the map follow the link
https://www.worldairports.se/pages/airport.php?
ICAO=KLBL

Runways:

(A) RW 04 length 5721 ft width 150 ft
---- / hdg 35

(B) RW 17 length 7105 ft width 100 ft
---- / hdg 170

(C) RW 22 length 5721 ft width 150 ft
---- / hdg 215

(D) RW 35 length 7105 ft width 100 ft
ILS 111.30 / hdg 350

Location; KLBL
Day. 19 / Time. 01.08 Zulu
* Altimeter: 30.28
* Temperature: 09° c. 48.2°f.
* Wind from: 180° Speed 09 kn.
Dewpoint: 09° c.
Visibility: 10 Statute Miles.
Clouds: Broken 800 ft.
Clouds: Broken 1500 ft.
Clouds: Overcast 2000 ft.
Conditions: Light Rain.

KLBL 190108Z AUTO 18009KT 10SM -RA BKN008 BKN015 OVC020 09/09 A3028 RMK AO2 P0000


Wind From 180°
Speed 09 kn.

 
 
jpsmedia.com for Web Design worldairports.se 2018   terms of use